sensor_id;sensor_type;location;lat;lon;timestamp;temperature;humidity
5200;DHT22;2619;47.868;11.892;2023-02-01T00:01:42;4.10;99.90
5200;DHT22;2619;47.868;11.892;2023-02-01T00:04:08;4.10;99.90
5200;DHT22;2619;47.868;11.892;2023-02-01T00:06:34;4.10;99.90
5200;DHT22;2619;47.868;11.892;2023-02-01T00:08:59;4.10;99.90
5200;DHT22;2619;47.868;11.892;2023-02-01T00:11:25;4.10;99.90
5200;DHT22;2619;47.868;11.892;2023-02-01T00:13:51;4.10;99.90
5200;DHT22;2619;47.868;11.892;2023-02-01T00:16:19;4.00;99.90
5200;DHT22;2619;47.868;11.892;2023-02-01T00:18:46;4.00;99.90
5200;DHT22;2619;47.868;11.892;2023-02-01T00:21:17;4.00;99.90
5200;DHT22;2619;47.868;11.892;2023-02-01T00:23:43;4.10;99.90
5200;DHT22;2619;47.868;11.892;2023-02-01T00:26:18;4.10;99.90
5200;DHT22;2619;47.868;11.892;2023-02-01T00:28:44;4.10;99.90
5200;DHT22;2619;47.868;11.892;2023-02-01T00:31:10;4.00;99.90
5200;DHT22;2619;47.868;11.892;2023-02-01T00:33:36;4.00;99.90
5200;DHT22;2619;47.868;11.892;2023-02-01T00:36:04;4.00;99.90
5200;DHT22;2619;47.868;11.892;2023-02-01T00:38:31;4.00;99.90
5200;DHT22;2619;47.868;11.892;2023-02-01T00:41:10;4.00;99.90
5200;DHT22;2619;47.868;11.892;2023-02-01T00:43:35;3.90;99.90
5200;DHT22;2619;47.868;11.892;2023-02-01T00:46:01;3.90;99.90
5200;DHT22;2619;47.868;11.892;2023-02-01T00:48:27;3.90;99.90
5200;DHT22;2619;47.868;11.892;2023-02-01T00:50:53;3.80;99.90
5200;DHT22;2619;47.868;11.892;2023-02-01T00:53:19;3.90;99.90
5200;DHT22;2619;47.868;11.892;2023-02-01T00:55:48;3.90;99.90
5200;DHT22;2619;47.868;11.892;2023-02-01T00:58:14;3.80;99.90
5200;DHT22;2619;47.868;11.892;2023-02-01T01:00:40;3.80;99.90
5200;DHT22;2619;47.868;11.892;2023-02-01T01:03:05;3.80;99.90
5200;DHT22;2619;47.868;11.892;2023-02-01T01:05:45;3.70;99.90
5200;DHT22;2619;47.868;11.892;2023-02-01T01:08:10;3.70;99.90
5200;DHT22;2619;47.868;11.892;2023-02-01T01:10:36;3.70;99.90
5200;DHT22;2619;47.868;11.892;2023-02-01T01:13:02;3.80;99.90
5200;DHT22;2619;47.868;11.892;2023-02-01T01:15:27;3.70;99.90
5200;DHT22;2619;47.868;11.892;2023-02-01T01:17:53;3.80;99.90
5200;DHT22;2619;47.868;11.892;2023-02-01T01:20:18;3.70;99.90
5200;DHT22;2619;47.868;11.892;2023-02-01T01:22:47;3.70;99.90
5200;DHT22;2619;47.868;11.892;2023-02-01T01:25:13;3.60;99.90
5200;DHT22;2619;47.868;11.892;2023-02-01T01:27:39;3.60;99.90
5200;DHT22;2619;47.868;11.892;2023-02-01T01:30:05;3.60;99.90
5200;DHT22;2619;47.868;11.892;2023-02-01T01:32:31;3.60;99.90
5200;DHT22;2619;47.868;11.892;2023-02-01T01:34:57;3.60;99.90
5200;DHT22;2619;47.868;11.892;2023-02-01T01:37:22;3.70;99.90
5200;DHT22;2619;47.868;11.892;2023-02-01T01:39:48;3.60;99.90
5200;DHT22;2619;47.868;11.892;2023-02-01T01:42:13;3.70;99.90
5200;DHT22;2619;47.868;11.892;2023-02-01T01:45:00;3.70;99.90
5200;DHT22;2619;47.868;11.892;2023-02-01T01:47:37;3.70;99.90
5200;DHT22;2619;47.868;11.892;2023-02-01T01:50:06;3.70;99.90
5200;DHT22;2619;47.868;11.892;2023-02-01T01:52:33;3.60;99.90
5200;DHT22;2619;47.868;11.892;2023-02-01T01:55:00;3.60;99.90
5200;DHT22;2619;47.868;11.892;2023-02-01T01:57:37;3.60;99.90
5200;DHT22;2619;47.868;11.892;2023-02-01T02:02:37;3.60;99.90
5200;DHT22;2619;47.868;11.892;2023-02-01T02:05:04;3.60;99.90
5200;DHT22;2619;47.868;11.892;2023-02-01T02:07:34;3.60;99.90
5200;DHT22;2619;47.868;11.892;2023-02-01T02:10:02;3.60;99.90
5200;DHT22;2619;47.868;11.892;2023-02-01T02:12:31;3.50;99.90
5200;DHT22;2619;47.868;11.892;2023-02-01T02:14:57;3.60;99.90
5200;DHT22;2619;47.868;11.892;2023-02-01T02:17:41;3.50;99.90
5200;DHT22;2619;47.868;11.892;2023-02-01T02:20:27;3.60;99.90
5200;DHT22;2619;47.868;11.892;2023-02-01T02:39:57;3.60;99.90
5200;DHT22;2619;47.868;11.892;2023-02-01T02:42:34;3.60;99.90
5200;DHT22;2619;47.868;11.892;2023-02-01T02:45:32;3.60;99.90
5200;DHT22;2619;47.868;11.892;2023-02-01T02:48:36;3.60;99.90
5200;DHT22;2619;47.868;11.892;2023-02-01T02:54:15;3.70;99.90
5200;DHT22;2619;47.868;11.892;2023-02-01T02:57:02;3.70;99.90
5200;DHT22;2619;47.868;11.892;2023-02-01T02:59:48;3.70;99.90
5200;DHT22;2619;47.868;11.892;2023-02-01T03:02:33;3.70;99.90
5200;DHT22;2619;47.868;11.892;2023-02-01T03:05:17;3.60;99.90
5200;DHT22;2619;47.868;11.892;2023-02-01T03:07:57;3.60;99.90
5200;DHT22;2619;47.868;11.892;2023-02-01T03:10:32;3.60;99.90
5200;DHT22;2619;47.868;11.892;2023-02-01T03:13:32;3.60;99.90
5200;DHT22;2619;47.868;11.892;2023-02-01T03:16:21;3.60;99.90
5200;DHT22;2619;47.868;11.892;2023-02-01T03:21:50;3.50;99.90
5200;DHT22;2619;47.868;11.892;2023-02-01T03:24:23;3.40;99.90
5200;DHT22;2619;47.868;11.892;2023-02-01T03:29:45;2.90;99.90
5200;DHT22;2619;47.868;11.892;2023-02-01T03:32:13;2.70;99.90
5200;DHT22;2619;47.868;11.892;2023-02-01T03:34:39;2.50;99.90
5200;DHT22;2619;47.868;11.892;2023-02-01T03:37:09;2.40;99.90
5200;DHT22;2619;47.868;11.892;2023-02-01T03:42:28;2.10;99.90
5200;DHT22;2619;47.868;11.892;2023-02-01T03:45:07;2.10;99.90
5200;DHT22;2619;47.868;11.892;2023-02-01T03:47:40;2.00;99.90
5200;DHT22;2619;47.868;11.892;2023-02-01T03:50:10;2.00;99.90
5200;DHT22;2619;47.868;11.892;2023-02-01T03:52:43;1.90;99.90
5200;DHT22;2619;47.868;11.892;2023-02-01T03:55:11;1.90;99.90
5200;DHT22;2619;47.868;11.892;2023-02-01T03:57:44;1.90;99.90
5200;DHT22;2619;47.868;11.892;2023-02-01T04:00:23;1.90;99.90
5200;DHT22;2619;47.868;11.892;2023-02-01T04:02:50;2.00;99.90
5200;DHT22;2619;47.868;11.892;2023-02-01T04:05:17;2.00;99.90
5200;DHT22;2619;47.868;11.892;2023-02-01T04:07:42;2.00;99.90
5200;DHT22;2619;47.868;11.892;2023-02-01T04:10:09;2.00;99.90
5200;DHT22;2619;47.868;11.892;2023-02-01T04:12:35;2.00;99.90
5200;DHT22;2619;47.868;11.892;2023-02-01T04:15:00;2.00;99.90
5200;DHT22;2619;47.868;11.892;2023-02-01T04:17:26;2.00;99.90
5200;DHT22;2619;47.868;11.892;2023-02-01T04:19:52;2.00;99.90
5200;DHT22;2619;47.868;11.892;2023-02-01T04:22:17;1.90;99.90
5200;DHT22;2619;47.868;11.892;2023-02-01T04:24:43;1.90;99.90
5200;DHT22;2619;47.868;11.892;2023-02-01T04:27:08;2.00;99.90
5200;DHT22;2619;47.868;11.892;2023-02-01T04:29:34;1.90;99.90
5200;DHT22;2619;47.868;11.892;2023-02-01T04:31:59;2.00;99.90
5200;DHT22;2619;47.868;11.892;2023-02-01T04:34:25;2.00;99.90
5200;DHT22;2619;47.868;11.892;2023-02-01T04:36:51;2.10;99.90
5200;DHT22;2619;47.868;11.892;2023-02-01T04:39:17;2.00;99.90
5200;DHT22;2619;47.868;11.892;2023-02-01T04:41:42;2.00;99.90
5200;DHT22;2619;47.868;11.892;2023-02-01T04:44:18;2.00;99.90
5200;DHT22;2619;47.868;11.892;2023-02-01T04:46:46;2.10;99.90
5200;DHT22;2619;47.868;11.892;2023-02-01T04:49:13;2.10;99.90
5200;DHT22;2619;47.868;11.892;2023-02-01T04:51:40;2.20;99.90
5200;DHT22;2619;47.868;11.892;2023-02-01T04:54:05;2.30;99.90
5200;DHT22;2619;47.868;11.892;2023-02-01T04:56:31;2.40;99.90
5200;DHT22;2619;47.868;11.892;2023-02-01T04:58:57;2.40;99.90
5200;DHT22;2619;47.868;11.892;2023-02-01T05:01:23;2.40;99.90
5200;DHT22;2619;47.868;11.892;2023-02-01T05:03:50;2.50;99.90
5200;DHT22;2619;47.868;11.892;2023-02-01T05:06:16;2.60;99.90
5200;DHT22;2619;47.868;11.892;2023-02-01T05:08:42;2.60;99.90
5200;DHT22;2619;47.868;11.892;2023-02-01T05:11:07;2.70;99.90
5200;DHT22;2619;47.868;11.892;2023-02-01T05:13:53;2.70;99.90
5200;DHT22;2619;47.868;11.892;2023-02-01T05:16:19;2.80;99.90
5200;DHT22;2619;47.868;11.892;2023-02-01T05:18:44;2.80;99.90
5200;DHT22;2619;47.868;11.892;2023-02-01T05:21:10;2.80;99.90
5200;DHT22;2619;47.868;11.892;2023-02-01T05:23:35;2.80;99.90
5200;DHT22;2619;47.868;11.892;2023-02-01T05:26:21;2.90;99.90
5200;DHT22;2619;47.868;11.892;2023-02-01T05:28:46;3.00;99.90
5200;DHT22;2619;47.868;11.892;2023-02-01T05:31:12;3.00;99.90
5200;DHT22;2619;47.868;11.892;2023-02-01T05:33:38;3.10;99.90
5200;DHT22;2619;47.868;11.892;2023-02-01T05:36:03;3.10;99.90
5200;DHT22;2619;47.868;11.892;2023-02-01T05:38:29;3.10;99.90
5200;DHT22;2619;47.868;11.892;2023-02-01T05:40:55;3.10;99.90
5200;DHT22;2619;47.868;11.892;2023-02-01T05:43:21;3.10;99.90
5200;DHT22;2619;47.868;11.892;2023-02-01T05:45:47;3.20;99.90
5200;DHT22;2619;47.868;11.892;2023-02-01T05:48:12;3.30;99.90
5200;DHT22;2619;47.868;11.892;2023-02-01T05:50:38;3.40;99.90
5200;DHT22;2619;47.868;11.892;2023-02-01T05:53:04;3.40;99.90
5200;DHT22;2619;47.868;11.892;2023-02-01T05:55:29;3.50;99.90
5200;DHT22;2619;47.868;11.892;2023-02-01T05:57:55;3.40;99.90
5200;DHT22;2619;47.868;11.892;2023-02-01T06:00:21;3.50;99.90
5200;DHT22;2619;47.868;11.892;2023-02-01T06:02:47;3.50;99.90
5200;DHT22;2619;47.868;11.892;2023-02-01T06:05:12;3.60;99.90
5200;DHT22;2619;47.868;11.892;2023-02-01T06:07:38;3.50;99.90
5200;DHT22;2619;47.868;11.892;2023-02-01T06:10:04;3.60;99.90
5200;DHT22;2619;47.868;11.892;2023-02-01T06:12:30;3.60;99.90
5200;DHT22;2619;47.868;11.892;2023-02-01T06:14:56;3.60;99.90
5200;DHT22;2619;47.868;11.892;2023-02-01T06:17:21;3.60;99.90
5200;DHT22;2619;47.868;11.892;2023-02-01T06:19:47;3.60;99.90
5200;DHT22;2619;47.868;11.892;2023-02-01T06:22:13;3.60;99.90
5200;DHT22;2619;47.868;11.892;2023-02-01T06:24:39;3.60;99.90
5200;DHT22;2619;47.868;11.892;2023-02-01T06:27:06;3.60;99.90
5200;DHT22;2619;47.868;11.892;2023-02-01T06:29:32;3.70;99.90
5200;DHT22;2619;47.868;11.892;2023-02-01T06:31:58;3.70;99.90
5200;DHT22;2619;47.868;11.892;2023-02-01T06:34:24;3.70;99.90
5200;DHT22;2619;47.868;11.892;2023-02-01T06:36:50;3.70;99.90
5200;DHT22;2619;47.868;11.892;2023-02-01T06:39:16;3.70;99.90
5200;DHT22;2619;47.868;11.892;2023-02-01T06:41:48;3.70;99.90
5200;DHT22;2619;47.868;11.892;2023-02-01T06:44:15;3.70;99.90
5200;DHT22;2619;47.868;11.892;2023-02-01T06:46:40;3.70;99.90
5200;DHT22;2619;47.868;11.892;2023-02-01T06:49:06;3.70;99.90
5200;DHT22;2619;47.868;11.892;2023-02-01T06:51:32;3.70;99.90
5200;DHT22;2619;47.868;11.892;2023-02-01T06:53:58;3.70;99.90
5200;DHT22;2619;47.868;11.892;2023-02-01T06:56:24;3.70;99.90
5200;DHT22;2619;47.868;11.892;2023-02-01T06:58:50;3.80;99.90
5200;DHT22;2619;47.868;11.892;2023-02-01T07:01:16;3.70;99.90
5200;DHT22;2619;47.868;11.892;2023-02-01T07:03:42;3.70;99.90
5200;DHT22;2619;47.868;11.892;2023-02-01T07:06:09;3.70;99.90
5200;DHT22;2619;47.868;11.892;2023-02-01T07:08:36;3.60;99.90
5200;DHT22;2619;47.868;11.892;2023-02-01T07:11:08;3.60;99.90
5200;DHT22;2619;47.868;11.892;2023-02-01T07:13:34;3.60;99.90
5200;DHT22;2619;47.868;11.892;2023-02-01T07:16:05;3.60;99.90
5200;DHT22;2619;47.868;11.892;2023-02-01T07:18:32;3.70;99.90
5200;DHT22;2619;47.868;11.892;2023-02-01T07:20:58;3.70;99.90
5200;DHT22;2619;47.868;11.892;2023-02-01T07:23:25;3.70;99.90
5200;DHT22;2619;47.868;11.892;2023-02-01T07:25:58;3.80;99.90
5200;DHT22;2619;47.868;11.892;2023-02-01T07:28:25;3.80;99.90
5200;DHT22;2619;47.868;11.892;2023-02-01T07:30:51;3.80;99.90
5200;DHT22;2619;47.868;11.892;2023-02-01T07:33:21;3.80;99.90
5200;DHT22;2619;47.868;11.892;2023-02-01T07:35:48;3.80;99.90
5200;DHT22;2619;47.868;11.892;2023-02-01T07:38:15;3.80;99.90
5200;DHT22;2619;47.868;11.892;2023-02-01T07:40:41;3.90;99.90
5200;DHT22;2619;47.868;11.892;2023-02-01T07:43:07;3.90;99.90
5200;DHT22;2619;47.868;11.892;2023-02-01T07:45:36;3.90;99.90
5200;DHT22;2619;47.868;11.892;2023-02-01T07:48:02;3.90;99.90
5200;DHT22;2619;47.868;11.892;2023-02-01T07:50:29;3.90;99.90
5200;DHT22;2619;47.868;11.892;2023-02-01T07:52:54;3.90;99.90
5200;DHT22;2619;47.868;11.892;2023-02-01T07:55:21;3.90;99.90
5200;DHT22;2619;47.868;11.892;2023-02-01T07:57:46;3.90;99.90
5200;DHT22;2619;47.868;11.892;2023-02-01T08:00:12;3.90;99.90
5200;DHT22;2619;47.868;11.892;2023-02-01T08:02:58;3.90;99.90
5200;DHT22;2619;47.868;11.892;2023-02-01T08:05:24;3.90;99.90
5200;DHT22;2619;47.868;11.892;2023-02-01T08:07:50;4.00;99.90
5200;DHT22;2619;47.868;11.892;2023-02-01T08:10:16;4.00;99.90
5200;DHT22;2619;47.868;11.892;2023-02-01T08:12:42;4.00;99.90
5200;DHT22;2619;47.868;11.892;2023-02-01T08:15:08;4.00;99.90
5200;DHT22;2619;47.868;11.892;2023-02-01T08:17:33;4.00;99.90
5200;DHT22;2619;47.868;11.892;2023-02-01T08:19:59;4.00;99.90
5200;DHT22;2619;47.868;11.892;2023-02-01T08:22:25;4.00;99.90
5200;DHT22;2619;47.868;11.892;2023-02-01T08:24:50;4.00;99.90
5200;DHT22;2619;47.868;11.892;2023-02-01T08:27:17;4.10;99.90
5200;DHT22;2619;47.868;11.892;2023-02-01T08:29:42;4.10;99.90
5200;DHT22;2619;47.868;11.892;2023-02-01T08:32:08;4.10;99.90
5200;DHT22;2619;47.868;11.892;2023-02-01T08:34:33;4.10;99.90
5200;DHT22;2619;47.868;11.892;2023-02-01T08:36:59;4.10;99.90
5200;DHT22;2619;47.868;11.892;2023-02-01T08:39:26;4.10;99.90
5200;DHT22;2619;47.868;11.892;2023-02-01T08:41:52;4.10;99.90
5200;DHT22;2619;47.868;11.892;2023-02-01T08:44:37;4.20;99.90
5200;DHT22;2619;47.868;11.892;2023-02-01T08:47:03;4.20;99.90
5200;DHT22;2619;47.868;11.892;2023-02-01T08:49:29;4.30;99.90
5200;DHT22;2619;47.868;11.892;2023-02-01T08:51:54;4.30;99.90
5200;DHT22;2619;47.868;11.892;2023-02-01T08:54:21;4.30;99.90
5200;DHT22;2619;47.868;11.892;2023-02-01T08:56:46;4.30;99.90
5200;DHT22;2619;47.868;11.892;2023-02-01T08:59:12;4.30;99.90
5200;DHT22;2619;47.868;11.892;2023-02-01T09:01:38;4.30;99.90
5200;DHT22;2619;47.868;11.892;2023-02-01T09:04:03;4.30;99.90
5200;DHT22;2619;47.868;11.892;2023-02-01T09:06:29;4.40;99.90
5200;DHT22;2619;47.868;11.892;2023-02-01T09:08:54;4.50;99.90
5200;DHT22;2619;47.868;11.892;2023-02-01T09:11:21;4.50;99.90
5200;DHT22;2619;47.868;11.892;2023-02-01T09:13:47;4.60;99.90
5200;DHT22;2619;47.868;11.892;2023-02-01T09:16:13;4.70;99.90
5200;DHT22;2619;47.868;11.892;2023-02-01T09:18:39;4.70;99.90
5200;DHT22;2619;47.868;11.892;2023-02-01T09:21:06;4.80;99.90
5200;DHT22;2619;47.868;11.892;2023-02-01T09:23:33;4.80;99.90
5200;DHT22;2619;47.868;11.892;2023-02-01T09:26:00;4.90;99.90
5200;DHT22;2619;47.868;11.892;2023-02-01T09:28:26;4.90;99.90
5200;DHT22;2619;47.868;11.892;2023-02-01T09:30:56;4.90;99.90
5200;DHT22;2619;47.868;11.892;2023-02-01T09:33:22;5.00;99.90
5200;DHT22;2619;47.868;11.892;2023-02-01T09:35:49;5.00;99.90
5200;DHT22;2619;47.868;11.892;2023-02-01T09:38:14;5.00;99.90
5200;DHT22;2619;47.868;11.892;2023-02-01T09:40:43;5.10;99.90
5200;DHT22;2619;47.868;11.892;2023-02-01T09:43:38;5.10;99.90
5200;DHT22;2619;47.868;11.892;2023-02-01T09:46:27;5.20;99.90
5200;DHT22;2619;47.868;11.892;2023-02-01T09:48:55;5.30;99.90
5200;DHT22;2619;47.868;11.892;2023-02-01T09:51:31;5.40;99.90
5200;DHT22;2619;47.868;11.892;2023-02-01T09:54:14;5.40;99.90
5200;DHT22;2619;47.868;11.892;2023-02-01T09:56:53;5.60;99.90
5200;DHT22;2619;47.868;11.892;2023-02-01T10:01:57;5.80;99.90
5200;DHT22;2619;47.868;11.892;2023-02-01T10:04:25;5.80;99.90
5200;DHT22;2619;47.868;11.892;2023-02-01T10:12:56;5.80;99.90
5200;DHT22;2619;47.868;11.892;2023-02-01T10:20:52;5.80;99.90
5200;DHT22;2619;47.868;11.892;2023-02-01T10:24:02;5.80;99.90
5200;DHT22;2619;47.868;11.892;2023-02-01T10:26:41;5.80;99.90
5200;DHT22;2619;47.868;11.892;2023-02-01T10:29:18;5.90;99.90
5200;DHT22;2619;47.868;11.892;2023-02-01T10:31:45;5.80;99.90
5200;DHT22;2619;47.868;11.892;2023-02-01T10:34:26;5.80;99.90
5200;DHT22;2619;47.868;11.892;2023-02-01T10:36:57;5.80;99.90
5200;DHT22;2619;47.868;11.892;2023-02-01T10:39:25;5.90;99.90
5200;DHT22;2619;47.868;11.892;2023-02-01T10:41:50;5.90;99.90
5200;DHT22;2619;47.868;11.892;2023-02-01T10:44:23;5.90;99.90
5200;DHT22;2619;47.868;11.892;2023-02-01T10:46:50;5.90;99.90
5200;DHT22;2619;47.868;11.892;2023-02-01T10:52:11;5.90;99.90
5200;DHT22;2619;47.868;11.892;2023-02-01T10:54:38;6.00;99.90
5200;DHT22;2619;47.868;11.892;2023-02-01T10:57:08;6.00;99.90
5200;DHT22;2619;47.868;11.892;2023-02-01T10:59:34;6.10;99.90
5200;DHT22;2619;47.868;11.892;2023-02-01T11:02:15;6.10;99.90
5200;DHT22;2619;47.868;11.892;2023-02-01T11:04:41;6.10;99.90
5200;DHT22;2619;47.868;11.892;2023-02-01T11:07:15;6.20;99.90
5200;DHT22;2619;47.868;11.892;2023-02-01T11:09:49;6.20;99.90
5200;DHT22;2619;47.868;11.892;2023-02-01T11:15:12;6.10;99.90
5200;DHT22;2619;47.868;11.892;2023-02-01T11:17:47;6.20;99.90
5200;DHT22;2619;47.868;11.892;2023-02-01T11:20:17;6.40;99.90
5200;DHT22;2619;47.868;11.892;2023-02-01T11:22:54;6.40;99.90
5200;DHT22;2619;47.868;11.892;2023-02-01T11:25:21;6.20;99.90
5200;DHT22;2619;47.868;11.892;2023-02-01T11:27:49;6.20;99.90
5200;DHT22;2619;47.868;11.892;2023-02-01T11:30:38;6.30;99.90
5200;DHT22;2619;47.868;11.892;2023-02-01T11:33:09;6.50;99.90
5200;DHT22;2619;47.868;11.892;2023-02-01T11:35:38;6.40;99.90
5200;DHT22;2619;47.868;11.892;2023-02-01T11:38:19;6.40;99.90
5200;DHT22;2619;47.868;11.892;2023-02-01T11:40:45;6.40;99.90
5200;DHT22;2619;47.868;11.892;2023-02-01T11:45:40;6.30;99.90
5200;DHT22;2619;47.868;11.892;2023-02-01T11:48:13;6.30;99.90
5200;DHT22;2619;47.868;11.892;2023-02-01T11:53:37;6.20;99.90
5200;DHT22;2619;47.868;11.892;2023-02-01T11:56:19;6.10;99.90
5200;DHT22;2619;47.868;11.892;2023-02-01T12:12:47;5.90;99.90
5200;DHT22;2619;47.868;11.892;2023-02-01T12:18:32;6.00;99.90
5200;DHT22;2619;47.868;11.892;2023-02-01T12:32:03;6.10;99.90
5200;DHT22;2619;47.868;11.892;2023-02-01T12:34:54;6.00;99.90
5200;DHT22;2619;47.868;11.892;2023-02-01T12:40:26;6.10;99.90
5200;DHT22;2619;47.868;11.892;2023-02-01T12:46:01;6.10;99.90
5200;DHT22;2619;47.868;11.892;2023-02-01T12:48:35;6.10;99.90
5200;DHT22;2619;47.868;11.892;2023-02-01T12:51:15;5.90;99.90
5200;DHT22;2619;47.868;11.892;2023-02-01T12:53:44;5.90;99.90
5200;DHT22;2619;47.868;11.892;2023-02-01T12:56:16;5.80;99.90
5200;DHT22;2619;47.868;11.892;2023-02-01T12:59:05;5.70;99.90
5200;DHT22;2619;47.868;11.892;2023-02-01T13:04:12;5.60;99.90
5200;DHT22;2619;47.868;11.892;2023-02-01T13:06:43;5.50;99.90
5200;DHT22;2619;47.868;11.892;2023-02-01T13:11:40;5.40;99.90
5200;DHT22;2619;47.868;11.892;2023-02-01T13:14:40;5.30;99.90
5200;DHT22;2619;47.868;11.892;2023-02-01T13:17:12;5.30;99.90
5200;DHT22;2619;47.868;11.892;2023-02-01T13:19:52;5.30;99.90
5200;DHT22;2619;47.868;11.892;2023-02-01T13:22:29;5.30;99.90
5200;DHT22;2619;47.868;11.892;2023-02-01T13:25:02;5.30;99.90
5200;DHT22;2619;47.868;11.892;2023-02-01T13:27:30;5.30;99.90
5200;DHT22;2619;47.868;11.892;2023-02-01T13:30:21;5.40;99.90
5200;DHT22;2619;47.868;11.892;2023-02-01T13:33:26;5.40;99.90
5200;DHT22;2619;47.868;11.892;2023-02-01T13:41:27;5.40;99.90
5200;DHT22;2619;47.868;11.892;2023-02-01T13:43:59;5.40;99.90
5200;DHT22;2619;47.868;11.892;2023-02-01T13:46:27;5.50;99.90
5200;DHT22;2619;47.868;11.892;2023-02-01T13:48:56;5.60;99.90
5200;DHT22;2619;47.868;11.892;2023-02-01T13:51:50;5.60;99.90
5200;DHT22;2619;47.868;11.892;2023-02-01T13:54:38;5.60;99.90
5200;DHT22;2619;47.868;11.892;2023-02-01T13:57:06;5.60;99.90
5200;DHT22;2619;47.868;11.892;2023-02-01T14:05:07;5.70;99.90
5200;DHT22;2619;47.868;11.892;2023-02-01T14:07:33;5.80;99.90
5200;DHT22;2619;47.868;11.892;2023-02-01T14:10:33;5.80;99.90
5200;DHT22;2619;47.868;11.892;2023-02-01T14:12:47;5.90;99.90
5200;DHT22;2619;47.868;11.892;2023-02-01T14:15:20;5.90;99.90
5200;DHT22;2619;47.868;11.892;2023-02-01T14:17:47;5.80;99.90
5200;DHT22;2619;47.868;11.892;2023-02-01T14:23:09;5.60;99.90
5200;DHT22;2619;47.868;11.892;2023-02-01T14:25:36;5.60;99.90
5200;DHT22;2619;47.868;11.892;2023-02-01T14:28:22;5.50;99.90
5200;DHT22;2619;47.868;11.892;2023-02-01T14:30:49;5.40;99.90
5200;DHT22;2619;47.868;11.892;2023-02-01T14:33:23;5.40;99.90
5200;DHT22;2619;47.868;11.892;2023-02-01T14:36:16;5.40;99.90
5200;DHT22;2619;47.868;11.892;2023-02-01T14:38:48;5.30;99.90
5200;DHT22;2619;47.868;11.892;2023-02-01T14:41:33;5.30;99.90
5200;DHT22;2619;47.868;11.892;2023-02-01T14:52:23;5.20;99.90
5200;DHT22;2619;47.868;11.892;2023-02-01T14:54:55;5.20;99.90
5200;DHT22;2619;47.868;11.892;2023-02-01T14:57:25;5.10;99.90
5200;DHT22;2619;47.868;11.892;2023-02-01T15:00:07;5.10;99.90
5200;DHT22;2619;47.868;11.892;2023-02-01T15:02:35;5.10;99.90
5200;DHT22;2619;47.868;11.892;2023-02-01T15:05:12;5.10;99.90
5200;DHT22;2619;47.868;11.892;2023-02-01T15:07:40;5.10;99.90
5200;DHT22;2619;47.868;11.892;2023-02-01T15:10:06;5.00;99.90
5200;DHT22;2619;47.868;11.892;2023-02-01T15:12:32;5.00;99.90
5200;DHT22;2619;47.868;11.892;2023-02-01T15:15:18;5.00;99.90
5200;DHT22;2619;47.868;11.892;2023-02-01T15:17:57;5.00;99.90
5200;DHT22;2619;47.868;11.892;2023-02-01T15:20:31;5.00;99.90
5200;DHT22;2619;47.868;11.892;2023-02-01T15:23:04;5.00;99.90
5200;DHT22;2619;47.868;11.892;2023-02-01T15:25:33;5.00;99.90
5200;DHT22;2619;47.868;11.892;2023-02-01T15:28:00;5.00;99.90
5200;DHT22;2619;47.868;11.892;2023-02-01T15:30:29;5.00;99.90
5200;DHT22;2619;47.868;11.892;2023-02-01T15:35:43;4.90;99.90
5200;DHT22;2619;47.868;11.892;2023-02-01T15:41:00;4.90;99.90
5200;DHT22;2619;47.868;11.892;2023-02-01T15:43:28;4.90;99.90
5200;DHT22;2619;47.868;11.892;2023-02-01T15:45:58;4.90;99.90
5200;DHT22;2619;47.868;11.892;2023-02-01T15:48:26;4.80;99.90
5200;DHT22;2619;47.868;11.892;2023-02-01T15:50:53;4.80;99.90
5200;DHT22;2619;47.868;11.892;2023-02-01T15:53:24;4.70;99.90
5200;DHT22;2619;47.868;11.892;2023-02-01T15:55:55;4.80;99.90
5200;DHT22;2619;47.868;11.892;2023-02-01T15:58:24;4.70;99.90
5200;DHT22;2619;47.868;11.892;2023-02-01T16:01:00;4.70;99.90
5200;DHT22;2619;47.868;11.892;2023-02-01T16:03:42;4.70;99.90
5200;DHT22;2619;47.868;11.892;2023-02-01T16:08:54;4.70;99.90
5200;DHT22;2619;47.868;11.892;2023-02-01T16:11:26;4.60;99.90
5200;DHT22;2619;47.868;11.892;2023-02-01T16:13:53;4.60;99.90
5200;DHT22;2619;47.868;11.892;2023-02-01T16:16:19;4.70;99.90
5200;DHT22;2619;47.868;11.892;2023-02-01T16:18:44;4.60;99.90
5200;DHT22;2619;47.868;11.892;2023-02-01T16:21:10;4.60;99.90
5200;DHT22;2619;47.868;11.892;2023-02-01T16:23:36;4.50;99.90
5200;DHT22;2619;47.868;11.892;2023-02-01T16:26:03;4.60;99.90
5200;DHT22;2619;47.868;11.892;2023-02-01T16:28:29;4.60;99.90
5200;DHT22;2619;47.868;11.892;2023-02-01T16:30:54;4.60;99.90
5200;DHT22;2619;47.868;11.892;2023-02-01T16:33:21;4.60;99.90
5200;DHT22;2619;47.868;11.892;2023-02-01T16:35:50;4.50;99.90
5200;DHT22;2619;47.868;11.892;2023-02-01T16:38:18;4.50;99.90
5200;DHT22;2619;47.868;11.892;2023-02-01T16:40:47;4.40;99.90
5200;DHT22;2619;47.868;11.892;2023-02-01T16:45:47;4.40;99.90
5200;DHT22;2619;47.868;11.892;2023-02-01T16:48:22;4.30;99.90
5200;DHT22;2619;47.868;11.892;2023-02-01T16:50:54;4.40;99.90
5200;DHT22;2619;47.868;11.892;2023-02-01T16:53:21;4.30;99.90
5200;DHT22;2619;47.868;11.892;2023-02-01T16:55:48;4.30;99.90
5200;DHT22;2619;47.868;11.892;2023-02-01T16:58:16;4.30;99.90
5200;DHT22;2619;47.868;11.892;2023-02-01T17:00:42;4.30;99.90
5200;DHT22;2619;47.868;11.892;2023-02-01T17:03:09;4.20;99.90
5200;DHT22;2619;47.868;11.892;2023-02-01T17:05:34;4.20;99.90
5200;DHT22;2619;47.868;11.892;2023-02-01T17:08:04;4.20;99.90
5200;DHT22;2619;47.868;11.892;2023-02-01T17:10:31;4.30;99.90
5200;DHT22;2619;47.868;11.892;2023-02-01T17:12:56;4.20;99.90
5200;DHT22;2619;47.868;11.892;2023-02-01T17:15:23;4.20;99.90
5200;DHT22;2619;47.868;11.892;2023-02-01T17:17:50;4.20;99.90
5200;DHT22;2619;47.868;11.892;2023-02-01T17:20:23;4.20;99.90
5200;DHT22;2619;47.868;11.892;2023-02-01T17:22:50;4.20;99.90
5200;DHT22;2619;47.868;11.892;2023-02-01T17:25:17;4.20;99.90
5200;DHT22;2619;47.868;11.892;2023-02-01T17:27:43;4.20;99.90
5200;DHT22;2619;47.868;11.892;2023-02-01T17:30:13;4.20;99.90
5200;DHT22;2619;47.868;11.892;2023-02-01T17:32:38;4.20;99.90
5200;DHT22;2619;47.868;11.892;2023-02-01T17:35:11;4.20;99.90
5200;DHT22;2619;47.868;11.892;2023-02-01T17:37:41;4.20;99.90
5200;DHT22;2619;47.868;11.892;2023-02-01T17:40:07;4.20;99.90
5200;DHT22;2619;47.868;11.892;2023-02-01T17:42:32;4.20;99.90
5200;DHT22;2619;47.868;11.892;2023-02-01T17:47:40;4.20;99.90
5200;DHT22;2619;47.868;11.892;2023-02-01T17:50:05;4.20;99.90
5200;DHT22;2619;47.868;11.892;2023-02-01T17:52:31;4.10;99.90
5200;DHT22;2619;47.868;11.892;2023-02-01T17:54:57;4.20;99.90
5200;DHT22;2619;47.868;11.892;2023-02-01T17:57:22;4.20;99.90
5200;DHT22;2619;47.868;11.892;2023-02-01T17:59:48;4.30;99.90
5200;DHT22;2619;47.868;11.892;2023-02-01T18:02:18;4.20;99.90
5200;DHT22;2619;47.868;11.892;2023-02-01T18:04:44;4.20;99.90
5200;DHT22;2619;47.868;11.892;2023-02-01T18:07:09;4.20;99.90
5200;DHT22;2619;47.868;11.892;2023-02-01T18:09:35;4.20;99.90
5200;DHT22;2619;47.868;11.892;2023-02-01T18:12:03;4.20;99.90
5200;DHT22;2619;47.868;11.892;2023-02-01T18:14:29;4.20;99.90
5200;DHT22;2619;47.868;11.892;2023-02-01T18:16:55;4.20;99.90
5200;DHT22;2619;47.868;11.892;2023-02-01T18:19:20;4.20;99.90
5200;DHT22;2619;47.868;11.892;2023-02-01T18:21:46;4.20;99.90
5200;DHT22;2619;47.868;11.892;2023-02-01T18:24:13;4.20;99.90
5200;DHT22;2619;47.868;11.892;2023-02-01T18:26:39;4.20;99.90
5200;DHT22;2619;47.868;11.892;2023-02-01T18:29:05;4.20;99.90
5200;DHT22;2619;47.868;11.892;2023-02-01T18:31:31;4.20;99.90